sensor_id;sensor_type;location;lat;lon;timestamp;temperature;humidity
37158;DHT22;23050;51.776;22.638;2023-06-14T00:01:01;12.90;99.90
37158;DHT22;23050;51.776;22.638;2023-06-14T00:03:28;12.80;99.90
37158;DHT22;23050;51.776;22.638;2023-06-14T00:08:38;12.90;99.90
37158;DHT22;23050;51.776;22.638;2023-06-14T00:11:05;12.90;99.90
37158;DHT22;23050;51.776;22.638;2023-06-14T00:13:30;12.90;99.90
37158;DHT22;23050;51.776;22.638;2023-06-14T00:15:56;12.80;99.90
37158;DHT22;23050;51.776;22.638;2023-06-14T00:18:22;12.90;99.90
37158;DHT22;23050;51.776;22.638;2023-06-14T00:20:51;12.80;99.90
37158;DHT22;23050;51.776;22.638;2023-06-14T00:23:17;12.80;99.90
37158;DHT22;23050;51.776;22.638;2023-06-14T00:25:42;12.80;99.90
37158;DHT22;23050;51.776;22.638;2023-06-14T00:28:08;12.80;99.90
37158;DHT22;23050;51.776;22.638;2023-06-14T00:30:33;12.90;99.90
37158;DHT22;23050;51.776;22.638;2023-06-14T00:32:59;12.80;99.90
37158;DHT22;23050;51.776;22.638;2023-06-14T00:35:24;12.80;99.90
37158;DHT22;23050;51.776;22.638;2023-06-14T00:37:50;12.80;99.90
37158;DHT22;23050;51.776;22.638;2023-06-14T00:40:16;12.80;99.90
37158;DHT22;23050;51.776;22.638;2023-06-14T00:42:41;12.80;99.90
37158;DHT22;23050;51.776;22.638;2023-06-14T00:45:07;12.70;99.90
37158;DHT22;23050;51.776;22.638;2023-06-14T00:47:33;12.70;99.90
37158;DHT22;23050;51.776;22.638;2023-06-14T00:49:59;12.80;99.90
37158;DHT22;23050;51.776;22.638;2023-06-14T00:52:25;12.70;99.90
37158;DHT22;23050;51.776;22.638;2023-06-14T00:54:51;12.70;99.90
37158;DHT22;23050;51.776;22.638;2023-06-14T00:57:16;12.70;99.90
37158;DHT22;23050;51.776;22.638;2023-06-14T00:59:42;12.70;99.90
37158;DHT22;23050;51.776;22.638;2023-06-14T01:02:08;12.70;99.90
37158;DHT22;23050;51.776;22.638;2023-06-14T01:04:34;12.70;99.90
37158;DHT22;23050;51.776;22.638;2023-06-14T01:07:14;12.70;99.90
37158;DHT22;23050;51.776;22.638;2023-06-14T01:15:26;12.70;99.90
37158;DHT22;23050;51.776;22.638;2023-06-14T01:17:52;12.70;99.90
37158;DHT22;23050;51.776;22.638;2023-06-14T01:20:19;12.80;99.90
37158;DHT22;23050;51.776;22.638;2023-06-14T01:23:03;12.70;99.90
37158;DHT22;23050;51.776;22.638;2023-06-14T01:25:29;12.70;99.90
37158;DHT22;23050;51.776;22.638;2023-06-14T01:28:02;12.70;99.90
37158;DHT22;23050;51.776;22.638;2023-06-14T01:30:28;12.70;99.90
37158;DHT22;23050;51.776;22.638;2023-06-14T01:32:54;12.70;99.90
37158;DHT22;23050;51.776;22.638;2023-06-14T01:35:21;12.70;99.90
37158;DHT22;23050;51.776;22.638;2023-06-14T01:37:47;12.70;99.90
37158;DHT22;23050;51.776;22.638;2023-06-14T01:40:13;12.80;99.90
37158;DHT22;23050;51.776;22.638;2023-06-14T01:42:39;12.70;99.90
37158;DHT22;23050;51.776;22.638;2023-06-14T01:45:05;12.70;99.90
37158;DHT22;23050;51.776;22.638;2023-06-14T01:47:31;12.70;99.90
37158;DHT22;23050;51.776;22.638;2023-06-14T01:49:57;12.70;99.90
37158;DHT22;23050;51.776;22.638;2023-06-14T01:52:22;12.70;99.90
37158;DHT22;23050;51.776;22.638;2023-06-14T01:54:49;12.80;99.90
37158;DHT22;23050;51.776;22.638;2023-06-14T01:57:15;12.70;99.90
37158;DHT22;23050;51.776;22.638;2023-06-14T01:59:41;12.80;99.90
37158;DHT22;23050;51.776;22.638;2023-06-14T02:02:06;12.70;99.90
37158;DHT22;23050;51.776;22.638;2023-06-14T02:04:32;12.70;99.90
37158;DHT22;23050;51.776;22.638;2023-06-14T02:06:57;12.70;99.90
37158;DHT22;23050;51.776;22.638;2023-06-14T02:09:23;12.70;99.90
37158;DHT22;23050;51.776;22.638;2023-06-14T02:11:49;12.70;99.90
37158;DHT22;23050;51.776;22.638;2023-06-14T02:14:14;12.70;99.90
37158;DHT22;23050;51.776;22.638;2023-06-14T02:16:40;12.70;99.90
37158;DHT22;23050;51.776;22.638;2023-06-14T02:19:05;12.70;99.90
37158;DHT22;23050;51.776;22.638;2023-06-14T02:21:31;12.70;99.90
37158;DHT22;23050;51.776;22.638;2023-06-14T02:23:56;12.70;99.90
37158;DHT22;23050;51.776;22.638;2023-06-14T02:26:23;12.70;99.90
37158;DHT22;23050;51.776;22.638;2023-06-14T02:28:49;12.60;99.90
37158;DHT22;23050;51.776;22.638;2023-06-14T02:31:14;12.70;99.90
37158;DHT22;23050;51.776;22.638;2023-06-14T02:33:41;12.60;99.90
37158;DHT22;23050;51.776;22.638;2023-06-14T02:36:07;12.60;99.90
37158;DHT22;23050;51.776;22.638;2023-06-14T02:38:32;12.60;99.90
37158;DHT22;23050;51.776;22.638;2023-06-14T02:40:58;12.60;99.90
37158;DHT22;23050;51.776;22.638;2023-06-14T02:43:24;12.70;99.90
37158;DHT22;23050;51.776;22.638;2023-06-14T02:45:50;12.60;99.90
37158;DHT22;23050;51.776;22.638;2023-06-14T02:48:15;12.70;99.90
37158;DHT22;23050;51.776;22.638;2023-06-14T02:50:41;12.60;99.90
37158;DHT22;23050;51.776;22.638;2023-06-14T02:53:07;12.70;99.90
37158;DHT22;23050;51.776;22.638;2023-06-14T02:55:33;12.70;99.90
37158;DHT22;23050;51.776;22.638;2023-06-14T02:57:58;12.70;99.90
37158;DHT22;23050;51.776;22.638;2023-06-14T03:00:24;12.70;99.90
37158;DHT22;23050;51.776;22.638;2023-06-14T03:02:49;12.80;99.90
37158;DHT22;23050;51.776;22.638;2023-06-14T03:05:16;12.80;99.90
37158;DHT22;23050;51.776;22.638;2023-06-14T03:07:46;12.80;99.90
37158;DHT22;23050;51.776;22.638;2023-06-14T03:10:12;13.00;99.90
37158;DHT22;23050;51.776;22.638;2023-06-14T03:12:38;12.90;99.90
37158;DHT22;23050;51.776;22.638;2023-06-14T03:15:04;12.90;99.90
37158;DHT22;23050;51.776;22.638;2023-06-14T03:17:29;12.90;99.90
37158;DHT22;23050;51.776;22.638;2023-06-14T03:19:59;12.90;99.90
37158;DHT22;23050;51.776;22.638;2023-06-14T03:22:24;12.90;99.90
37158;DHT22;23050;51.776;22.638;2023-06-14T03:24:51;13.00;99.90
37158;DHT22;23050;51.776;22.638;2023-06-14T03:27:17;13.00;99.90
37158;DHT22;23050;51.776;22.638;2023-06-14T03:29:42;13.00;99.90
37158;DHT22;23050;51.776;22.638;2023-06-14T03:32:08;13.00;99.90
37158;DHT22;23050;51.776;22.638;2023-06-14T03:34:33;13.10;99.90
37158;DHT22;23050;51.776;22.638;2023-06-14T03:36:59;13.10;99.90
37158;DHT22;23050;51.776;22.638;2023-06-14T03:39:24;13.10;99.90
37158;DHT22;23050;51.776;22.638;2023-06-14T03:41:50;13.10;99.90
37158;DHT22;23050;51.776;22.638;2023-06-14T03:44:16;13.20;99.90
37158;DHT22;23050;51.776;22.638;2023-06-14T03:46:42;13.20;99.90
37158;DHT22;23050;51.776;22.638;2023-06-14T03:49:08;13.30;99.90
37158;DHT22;23050;51.776;22.638;2023-06-14T03:51:33;13.40;99.90
37158;DHT22;23050;51.776;22.638;2023-06-14T03:54:00;13.40;99.90
37158;DHT22;23050;51.776;22.638;2023-06-14T03:56:26;13.40;99.90
37158;DHT22;23050;51.776;22.638;2023-06-14T03:58:52;13.50;99.90
37158;DHT22;23050;51.776;22.638;2023-06-14T04:01:17;13.50;99.90
37158;DHT22;23050;51.776;22.638;2023-06-14T04:03:43;13.60;99.90
37158;DHT22;23050;51.776;22.638;2023-06-14T04:06:08;13.70;99.90
37158;DHT22;23050;51.776;22.638;2023-06-14T04:08:34;13.70;99.90
37158;DHT22;23050;51.776;22.638;2023-06-14T04:11:00;13.80;99.90
37158;DHT22;23050;51.776;22.638;2023-06-14T04:13:26;13.90;99.90
37158;DHT22;23050;51.776;22.638;2023-06-14T04:15:51;14.00;99.90
37158;DHT22;23050;51.776;22.638;2023-06-14T04:18:17;14.20;99.90
37158;DHT22;23050;51.776;22.638;2023-06-14T04:20:44;14.20;99.90
37158;DHT22;23050;51.776;22.638;2023-06-14T04:23:14;14.30;99.90
37158;DHT22;23050;51.776;22.638;2023-06-14T04:25:40;14.30;99.90
37158;DHT22;23050;51.776;22.638;2023-06-14T04:28:10;14.30;99.90
37158;DHT22;23050;51.776;22.638;2023-06-14T04:30:36;14.30;99.90
37158;DHT22;23050;51.776;22.638;2023-06-14T04:33:04;14.40;99.90
37158;DHT22;23050;51.776;22.638;2023-06-14T04:35:31;14.40;99.90
37158;DHT22;23050;51.776;22.638;2023-06-14T04:37:57;14.50;99.90
37158;DHT22;23050;51.776;22.638;2023-06-14T04:40:23;14.60;99.90
37158;DHT22;23050;51.776;22.638;2023-06-14T04:42:49;14.80;99.90
37158;DHT22;23050;51.776;22.638;2023-06-14T04:45:18;14.90;99.90
37158;DHT22;23050;51.776;22.638;2023-06-14T04:47:43;14.90;99.90
37158;DHT22;23050;51.776;22.638;2023-06-14T04:50:09;15.00;99.90
37158;DHT22;23050;51.776;22.638;2023-06-14T04:52:36;15.00;99.90
37158;DHT22;23050;51.776;22.638;2023-06-14T04:55:02;15.10;99.90
37158;DHT22;23050;51.776;22.638;2023-06-14T04:57:28;15.20;99.90
37158;DHT22;23050;51.776;22.638;2023-06-14T04:59:54;15.40;99.90
37158;DHT22;23050;51.776;22.638;2023-06-14T05:02:21;15.70;99.90
37158;DHT22;23050;51.776;22.638;2023-06-14T05:04:47;15.90;99.90
37158;DHT22;23050;51.776;22.638;2023-06-14T05:07:12;16.00;99.90
37158;DHT22;23050;51.776;22.638;2023-06-14T05:09:39;16.20;99.90
37158;DHT22;23050;51.776;22.638;2023-06-14T05:12:05;16.20;99.90
37158;DHT22;23050;51.776;22.638;2023-06-14T05:14:33;16.30;99.90
37158;DHT22;23050;51.776;22.638;2023-06-14T05:16:58;16.30;99.90
37158;DHT22;23050;51.776;22.638;2023-06-14T05:19:24;16.10;99.90
37158;DHT22;23050;51.776;22.638;2023-06-14T05:21:50;16.10;99.90
37158;DHT22;23050;51.776;22.638;2023-06-14T05:24:16;16.00;99.90
37158;DHT22;23050;51.776;22.638;2023-06-14T05:26:45;16.00;99.90
37158;DHT22;23050;51.776;22.638;2023-06-14T05:29:10;16.10;99.90
37158;DHT22;23050;51.776;22.638;2023-06-14T05:31:36;16.10;99.90
37158;DHT22;23050;51.776;22.638;2023-06-14T05:34:01;16.10;99.90
37158;DHT22;23050;51.776;22.638;2023-06-14T05:36:27;16.10;99.90
37158;DHT22;23050;51.776;22.638;2023-06-14T05:38:53;16.20;99.90
37158;DHT22;23050;51.776;22.638;2023-06-14T05:41:26;16.80;99.90
37158;DHT22;23050;51.776;22.638;2023-06-14T05:43:53;18.00;99.90
37158;DHT22;23050;51.776;22.638;2023-06-14T05:46:19;18.70;99.90
37158;DHT22;23050;51.776;22.638;2023-06-14T05:48:50;19.00;99.90
37158;DHT22;23050;51.776;22.638;2023-06-14T05:51:15;18.80;99.90
37158;DHT22;23050;51.776;22.638;2023-06-14T05:53:47;18.80;99.90
37158;DHT22;23050;51.776;22.638;2023-06-14T05:56:16;19.00;99.90
37158;DHT22;23050;51.776;22.638;2023-06-14T05:58:45;19.40;99.90
37158;DHT22;23050;51.776;22.638;2023-06-14T06:01:11;19.50;99.90
37158;DHT22;23050;51.776;22.638;2023-06-14T06:03:36;19.70;99.90
37158;DHT22;23050;51.776;22.638;2023-06-14T06:06:02;19.80;99.90
37158;DHT22;23050;51.776;22.638;2023-06-14T06:08:28;19.70;99.90
37158;DHT22;23050;51.776;22.638;2023-06-14T06:10:54;19.40;99.90
37158;DHT22;23050;51.776;22.638;2023-06-14T06:13:19;19.40;99.90
37158;DHT22;23050;51.776;22.638;2023-06-14T06:15:45;19.20;99.90
37158;DHT22;23050;51.776;22.638;2023-06-14T06:18:11;18.90;99.90
37158;DHT22;23050;51.776;22.638;2023-06-14T06:20:36;18.60;99.90
37158;DHT22;23050;51.776;22.638;2023-06-14T06:23:02;18.50;99.90
37158;DHT22;23050;51.776;22.638;2023-06-14T06:25:27;18.50;99.90
37158;DHT22;23050;51.776;22.638;2023-06-14T06:27:54;18.90;99.90
37158;DHT22;23050;51.776;22.638;2023-06-14T06:30:19;19.30;99.90
37158;DHT22;23050;51.776;22.638;2023-06-14T06:32:45;19.20;99.90
37158;DHT22;23050;51.776;22.638;2023-06-14T06:35:11;19.40;99.90
37158;DHT22;23050;51.776;22.638;2023-06-14T06:37:38;19.40;99.90
37158;DHT22;23050;51.776;22.638;2023-06-14T06:40:03;19.40;99.90
37158;DHT22;23050;51.776;22.638;2023-06-14T06:42:31;19.40;99.90
37158;DHT22;23050;51.776;22.638;2023-06-14T06:44:56;19.40;99.90
37158;DHT22;23050;51.776;22.638;2023-06-14T06:47:22;19.50;99.90
37158;DHT22;23050;51.776;22.638;2023-06-14T06:49:47;19.40;99.90
37158;DHT22;23050;51.776;22.638;2023-06-14T06:52:13;19.20;99.90
37158;DHT22;23050;51.776;22.638;2023-06-14T06:54:38;18.80;99.90
37158;DHT22;23050;51.776;22.638;2023-06-14T06:57:04;18.50;99.90
37158;DHT22;23050;51.776;22.638;2023-06-14T06:59:31;18.30;99.90
37158;DHT22;23050;51.776;22.638;2023-06-14T07:01:56;18.20;99.90
37158;DHT22;23050;51.776;22.638;2023-06-14T07:04:22;18.20;99.90
37158;DHT22;23050;51.776;22.638;2023-06-14T07:06:47;18.70;99.90
37158;DHT22;23050;51.776;22.638;2023-06-14T07:09:13;19.50;99.90
37158;DHT22;23050;51.776;22.638;2023-06-14T07:11:40;20.30;99.70
37158;DHT22;23050;51.776;22.638;2023-06-14T07:14:06;20.50;97.60
37158;DHT22;23050;51.776;22.638;2023-06-14T07:16:31;20.60;96.70
37158;DHT22;23050;51.776;22.638;2023-06-14T07:18:57;20.40;97.00
37158;DHT22;23050;51.776;22.638;2023-06-14T07:21:22;20.00;99.90
37158;DHT22;23050;51.776;22.638;2023-06-14T07:23:48;19.80;99.30
37158;DHT22;23050;51.776;22.638;2023-06-14T07:26:13;19.60;99.60
37158;DHT22;23050;51.776;22.638;2023-06-14T07:28:39;19.70;99.90
37158;DHT22;23050;51.776;22.638;2023-06-14T07:31:04;19.80;97.70
37158;DHT22;23050;51.776;22.638;2023-06-14T07:33:30;20.40;96.20
37158;DHT22;23050;51.776;22.638;2023-06-14T07:35:55;20.90;95.50
37158;DHT22;23050;51.776;22.638;2023-06-14T07:38:21;21.30;92.00
37158;DHT22;23050;51.776;22.638;2023-06-14T07:40:47;22.00;90.50
37158;DHT22;23050;51.776;22.638;2023-06-14T07:43:12;23.10;79.50
37158;DHT22;23050;51.776;22.638;2023-06-14T07:45:37;23.20;68.00
37158;DHT22;23050;51.776;22.638;2023-06-14T07:48:03;23.40;68.10
37158;DHT22;23050;51.776;22.638;2023-06-14T07:50:29;23.30;65.00
37158;DHT22;23050;51.776;22.638;2023-06-14T07:52:54;23.10;65.10
37158;DHT22;23050;51.776;22.638;2023-06-14T07:55:20;23.10;58.20
37158;DHT22;23050;51.776;22.638;2023-06-14T07:57:45;23.50;58.30
37158;DHT22;23050;51.776;22.638;2023-06-14T08:00:11;24.30;44.80
37158;DHT22;23050;51.776;22.638;2023-06-14T08:02:43;25.90;39.30
37158;DHT22;23050;51.776;22.638;2023-06-14T08:05:09;27.50;19.30
37158;DHT22;23050;51.776;22.638;2023-06-14T08:07:35;27.80;5.90
37158;DHT22;23050;51.776;22.638;2023-06-14T08:10:00;27.90;1.60
37158;DHT22;23050;51.776;22.638;2023-06-14T08:12:26;28.00;1.00
37158;DHT22;23050;51.776;22.638;2023-06-14T08:14:52;27.30;1.00
37158;DHT22;23050;51.776;22.638;2023-06-14T08:17:17;26.60;1.00
37158;DHT22;23050;51.776;22.638;2023-06-14T08:19:43;26.00;4.60
37158;DHT22;23050;51.776;22.638;2023-06-14T08:22:08;25.10;7.70
37158;DHT22;23050;51.776;22.638;2023-06-14T08:24:36;24.50;11.20
37158;DHT22;23050;51.776;22.638;2023-06-14T08:27:02;23.70;9.60
37158;DHT22;23050;51.776;22.638;2023-06-14T08:29:28;23.80;15.00
37158;DHT22;23050;51.776;22.638;2023-06-14T08:31:56;23.90;12.90
37158;DHT22;23050;51.776;22.638;2023-06-14T08:34:22;24.20;8.90
37158;DHT22;23050;51.776;22.638;2023-06-14T08:36:50;24.40;9.10
37158;DHT22;23050;51.776;22.638;2023-06-14T08:39:15;24.00;4.70
37158;DHT22;23050;51.776;22.638;2023-06-14T08:41:41;23.20;5.00
37158;DHT22;23050;51.776;22.638;2023-06-14T08:44:08;22.90;8.90
37158;DHT22;23050;51.776;22.638;2023-06-14T08:46:33;22.70;11.60
37158;DHT22;23050;51.776;22.638;2023-06-14T08:49:01;22.50;12.70
37158;DHT22;23050;51.776;22.638;2023-06-14T08:51:27;22.00;19.00
37158;DHT22;23050;51.776;22.638;2023-06-14T08:53:59;22.20;21.80
37158;DHT22;23050;51.776;22.638;2023-06-14T08:56:27;22.30;18.80
37158;DHT22;23050;51.776;22.638;2023-06-14T08:58:54;22.20;18.90
37158;DHT22;23050;51.776;22.638;2023-06-14T09:01:20;22.30;17.40
37158;DHT22;23050;51.776;22.638;2023-06-14T09:03:47;22.60;20.50
37158;DHT22;23050;51.776;22.638;2023-06-14T09:06:13;23.30;18.20
37158;DHT22;23050;51.776;22.638;2023-06-14T09:08:40;23.20;12.20
37158;DHT22;23050;51.776;22.638;2023-06-14T09:11:07;23.40;15.40
37158;DHT22;23050;51.776;22.638;2023-06-14T09:13:33;23.50;12.30
37158;DHT22;23050;51.776;22.638;2023-06-14T09:15:59;23.70;12.40
37158;DHT22;23050;51.776;22.638;2023-06-14T09:18:33;24.20;9.20
37158;DHT22;23050;51.776;22.638;2023-06-14T09:20:59;24.40;6.20
37158;DHT22;23050;51.776;22.638;2023-06-14T09:23:25;23.90;4.60
37158;DHT22;23050;51.776;22.638;2023-06-14T09:25:50;23.50;8.50
37158;DHT22;23050;51.776;22.638;2023-06-14T09:28:15;23.00;6.20
37158;DHT22;23050;51.776;22.638;2023-06-14T09:30:41;22.70;11.80
37158;DHT22;23050;51.776;22.638;2023-06-14T09:33:06;22.10;12.00
37158;DHT22;23050;51.776;22.638;2023-06-14T09:35:32;22.70;13.30
37158;DHT22;23050;51.776;22.638;2023-06-14T09:37:58;23.00;9.90
37158;DHT22;23050;51.776;22.638;2023-06-14T09:40:23;23.40;5.90
37158;DHT22;23050;51.776;22.638;2023-06-14T09:42:49;23.30;3.90
37158;DHT22;23050;51.776;22.638;2023-06-14T09:45:15;23.10;7.30
37158;DHT22;23050;51.776;22.638;2023-06-14T09:47:44;22.60;11.20
37158;DHT22;23050;51.776;22.638;2023-06-14T09:50:10;21.70;12.00
37158;DHT22;23050;51.776;22.638;2023-06-14T09:52:36;21.60;17.30
37158;DHT22;23050;51.776;22.638;2023-06-14T09:55:02;21.40;17.10
37158;DHT22;23050;51.776;22.638;2023-06-14T09:57:32;20.90;21.10
37158;DHT22;23050;51.776;22.638;2023-06-14T10:00:00;20.80;18.60
37158;DHT22;23050;51.776;22.638;2023-06-14T10:02:29;20.70;20.70
37158;DHT22;23050;51.776;22.638;2023-06-14T10:05:03;20.80;20.30
37158;DHT22;23050;51.776;22.638;2023-06-14T10:07:30;20.80;21.00
37158;DHT22;23050;51.776;22.638;2023-06-14T10:09:57;20.50;18.40
37158;DHT22;23050;51.776;22.638;2023-06-14T10:12:22;20.30;19.20
37158;DHT22;23050;51.776;22.638;2023-06-14T10:14:49;20.30;21.50
37158;DHT22;23050;51.776;22.638;2023-06-14T10:17:34;20.40;24.10
37158;DHT22;23050;51.776;22.638;2023-06-14T10:22:50;20.30;20.50
37158;DHT22;23050;51.776;22.638;2023-06-14T10:25:26;20.20;22.60
37158;DHT22;23050;51.776;22.638;2023-06-14T10:27:52;20.40;25.60
37158;DHT22;23050;51.776;22.638;2023-06-14T10:30:18;20.60;23.10
37158;DHT22;23050;51.776;22.638;2023-06-14T10:33:03;20.70;21.70
37158;DHT22;23050;51.776;22.638;2023-06-14T10:35:29;20.90;24.20
37158;DHT22;23050;51.776;22.638;2023-06-14T10:37:55;20.60;21.90
37158;DHT22;23050;51.776;22.638;2023-06-14T10:40:30;20.60;23.40
37158;DHT22;23050;51.776;22.638;2023-06-14T10:42:55;20.40;26.40
37158;DHT22;23050;51.776;22.638;2023-06-14T10:45:21;20.40;27.60
37158;DHT22;23050;51.776;22.638;2023-06-14T10:47:47;20.40;29.60
37158;DHT22;23050;51.776;22.638;2023-06-14T10:50:14;20.40;28.80
37158;DHT22;23050;51.776;22.638;2023-06-14T10:52:42;20.40;29.10
37158;DHT22;23050;51.776;22.638;2023-06-14T10:55:09;20.50;27.10
37158;DHT22;23050;51.776;22.638;2023-06-14T10:57:35;20.40;30.60
37158;DHT22;23050;51.776;22.638;2023-06-14T11:00:01;20.50;29.50
37158;DHT22;23050;51.776;22.638;2023-06-14T11:02:48;20.40;30.20
37158;DHT22;23050;51.776;22.638;2023-06-14T11:05:15;20.40;32.70
37158;DHT22;23050;51.776;22.638;2023-06-14T11:12:42;20.10;35.20
37158;DHT22;23050;51.776;22.638;2023-06-14T11:15:11;20.10;38.00
37158;DHT22;23050;51.776;22.638;2023-06-14T11:17:36;19.90;40.00
37158;DHT22;23050;51.776;22.638;2023-06-14T11:20:11;19.90;39.90
37158;DHT22;23050;51.776;22.638;2023-06-14T11:22:44;19.90;38.10
37158;DHT22;23050;51.776;22.638;2023-06-14T11:25:11;19.80;40.60
37158;DHT22;23050;51.776;22.638;2023-06-14T11:27:36;19.70;43.10
37158;DHT22;23050;51.776;22.638;2023-06-14T11:30:02;19.70;41.80
37158;DHT22;23050;51.776;22.638;2023-06-14T11:32:27;19.70;41.50
37158;DHT22;23050;51.776;22.638;2023-06-14T11:34:53;19.60;41.50
37158;DHT22;23050;51.776;22.638;2023-06-14T11:37:19;19.40;44.80
37158;DHT22;23050;51.776;22.638;2023-06-14T11:39:45;19.30;46.10
37158;DHT22;23050;51.776;22.638;2023-06-14T11:42:15;19.20;48.10
37158;DHT22;23050;51.776;22.638;2023-06-14T11:44:40;19.20;53.30
37158;DHT22;23050;51.776;22.638;2023-06-14T11:47:06;19.20;52.30
37158;DHT22;23050;51.776;22.638;2023-06-14T11:49:35;19.30;55.00
37158;DHT22;23050;51.776;22.638;2023-06-14T11:52:01;19.10;50.70
37158;DHT22;23050;51.776;22.638;2023-06-14T11:54:27;19.10;52.60
37158;DHT22;23050;51.776;22.638;2023-06-14T11:56:55;18.90;51.60
37158;DHT22;23050;51.776;22.638;2023-06-14T11:59:20;18.70;52.50
37158;DHT22;23050;51.776;22.638;2023-06-14T12:01:47;18.40;54.70
37158;DHT22;23050;51.776;22.638;2023-06-14T12:04:13;18.30;59.90
37158;DHT22;23050;51.776;22.638;2023-06-14T12:06:38;18.20;61.80
37158;DHT22;23050;51.776;22.638;2023-06-14T12:09:05;18.30;63.50
37158;DHT22;23050;51.776;22.638;2023-06-14T12:11:38;18.20;64.70
37158;DHT22;23050;51.776;22.638;2023-06-14T12:14:07;18.30;67.10
37158;DHT22;23050;51.776;22.638;2023-06-14T12:16:34;18.30;67.80
37158;DHT22;23050;51.776;22.638;2023-06-14T12:19:07;18.20;64.90
37158;DHT22;23050;51.776;22.638;2023-06-14T12:21:33;18.20;64.50
37158;DHT22;23050;51.776;22.638;2023-06-14T12:24:03;18.10;67.20
37158;DHT22;23050;51.776;22.638;2023-06-14T12:26:28;18.10;71.30
37158;DHT22;23050;51.776;22.638;2023-06-14T12:28:54;18.20;70.20
37158;DHT22;23050;51.776;22.638;2023-06-14T12:31:19;18.20;68.90
37158;DHT22;23050;51.776;22.638;2023-06-14T12:33:46;18.20;67.10
37158;DHT22;23050;51.776;22.638;2023-06-14T12:36:14;18.20;66.60
37158;DHT22;23050;51.776;22.638;2023-06-14T12:38:40;18.20;66.40
37158;DHT22;23050;51.776;22.638;2023-06-14T12:41:06;18.30;68.50
37158;DHT22;23050;51.776;22.638;2023-06-14T12:43:32;18.20;66.80
37158;DHT22;23050;51.776;22.638;2023-06-14T12:45:58;18.30;68.50
37158;DHT22;23050;51.776;22.638;2023-06-14T12:48:24;18.40;66.80
37158;DHT22;23050;51.776;22.638;2023-06-14T12:50:50;18.50;67.30
37158;DHT22;23050;51.776;22.638;2023-06-14T12:53:15;18.60;68.30
37158;DHT22;23050;51.776;22.638;2023-06-14T12:55:41;18.60;67.50
37158;DHT22;23050;51.776;22.638;2023-06-14T12:58:06;18.70;70.40
37158;DHT22;23050;51.776;22.638;2023-06-14T13:00:32;18.70;68.30
37158;DHT22;23050;51.776;22.638;2023-06-14T13:02:57;18.60;67.60
37158;DHT22;23050;51.776;22.638;2023-06-14T13:05:23;18.60;67.50
37158;DHT22;23050;51.776;22.638;2023-06-14T13:07:49;18.50;70.30
37158;DHT22;23050;51.776;22.638;2023-06-14T13:10:15;18.40;70.50
37158;DHT22;23050;51.776;22.638;2023-06-14T13:12:41;18.50;72.00
37158;DHT22;23050;51.776;22.638;2023-06-14T13:15:06;18.50;69.70
37158;DHT22;23050;51.776;22.638;2023-06-14T13:17:33;18.60;73.00
37158;DHT22;23050;51.776;22.638;2023-06-14T13:20:06;18.80;73.00
37158;DHT22;23050;51.776;22.638;2023-06-14T13:22:32;18.90;71.20
37158;DHT22;23050;51.776;22.638;2023-06-14T13:24:58;18.90;70.60
37158;DHT22;23050;51.776;22.638;2023-06-14T13:27:24;18.90;68.90
37158;DHT22;23050;51.776;22.638;2023-06-14T13:29:50;18.90;69.70
37158;DHT22;23050;51.776;22.638;2023-06-14T13:32:21;19.00;69.40
37158;DHT22;23050;51.776;22.638;2023-06-14T13:34:47;18.90;65.70
37158;DHT22;23050;51.776;22.638;2023-06-14T13:37:12;18.80;65.20
37158;DHT22;23050;51.776;22.638;2023-06-14T13:39:38;18.70;64.20
37158;DHT22;23050;51.776;22.638;2023-06-14T13:42:04;18.60;68.70
37158;DHT22;23050;51.776;22.638;2023-06-14T13:44:30;18.60;67.80
37158;DHT22;23050;51.776;22.638;2023-06-14T13:46:55;18.70;68.60
37158;DHT22;23050;51.776;22.638;2023-06-14T13:49:20;18.70;66.40
37158;DHT22;23050;51.776;22.638;2023-06-14T13:51:47;18.70;66.20
37158;DHT22;23050;51.776;22.638;2023-06-14T13:54:12;18.70;65.80
37158;DHT22;23050;51.776;22.638;2023-06-14T13:56:38;18.60;67.40
37158;DHT22;23050;51.776;22.638;2023-06-14T13:59:04;18.60;63.90
37158;DHT22;23050;51.776;22.638;2023-06-14T14:01:29;18.70;63.60
37158;DHT22;23050;51.776;22.638;2023-06-14T14:03:55;18.80;61.50
37158;DHT22;23050;51.776;22.638;2023-06-14T14:06:20;18.90;56.90
37158;DHT22;23050;51.776;22.638;2023-06-14T14:08:46;19.00;61.90
37158;DHT22;23050;51.776;22.638;2023-06-14T14:11:11;19.10;60.20
37158;DHT22;23050;51.776;22.638;2023-06-14T14:13:37;19.10;60.50
37158;DHT22;23050;51.776;22.638;2023-06-14T14:16:03;19.30;56.50
37158;DHT22;23050;51.776;22.638;2023-06-14T14:18:29;19.20;57.50
37158;DHT22;23050;51.776;22.638;2023-06-14T14:20:54;19.40;56.50
37158;DHT22;23050;51.776;22.638;2023-06-14T14:23:21;19.40;55.60
37158;DHT22;23050;51.776;22.638;2023-06-14T14:25:47;19.40;52.90
37158;DHT22;23050;51.776;22.638;2023-06-14T14:28:12;19.40;54.30
37158;DHT22;23050;51.776;22.638;2023-06-14T14:30:41;19.50;54.30
37158;DHT22;23050;51.776;22.638;2023-06-14T14:33:06;19.50;56.50
37158;DHT22;23050;51.776;22.638;2023-06-14T14:35:32;19.60;49.40
37158;DHT22;23050;51.776;22.638;2023-06-14T14:37:57;19.50;51.40
37158;DHT22;23050;51.776;22.638;2023-06-14T14:40:23;19.40;53.20
37158;DHT22;23050;51.776;22.638;2023-06-14T14:42:49;19.40;54.90
37158;DHT22;23050;51.776;22.638;2023-06-14T14:45:14;19.30;54.60
37158;DHT22;23050;51.776;22.638;2023-06-14T14:47:40;19.20;57.70
37158;DHT22;23050;51.776;22.638;2023-06-14T14:50:05;19.20;59.80
37158;DHT22;23050;51.776;22.638;2023-06-14T14:52:34;19.10;57.40
37158;DHT22;23050;51.776;22.638;2023-06-14T14:55:00;19.10;57.00
37158;DHT22;23050;51.776;22.638;2023-06-14T14:57:26;19.10;57.60
37158;DHT22;23050;51.776;22.638;2023-06-14T14:59:51;19.10;60.10
37158;DHT22;23050;51.776;22.638;2023-06-14T15:02:17;19.20;59.30
37158;DHT22;23050;51.776;22.638;2023-06-14T15:04:42;19.30;56.30
37158;DHT22;23050;51.776;22.638;2023-06-14T15:07:08;19.30;55.00
37158;DHT22;23050;51.776;22.638;2023-06-14T15:09:33;19.30;56.10
37158;DHT22;23050;51.776;22.638;2023-06-14T15:11:59;19.30;52.90
37158;DHT22;23050;51.776;22.638;2023-06-14T15:14:24;19.40;50.80
37158;DHT22;23050;51.776;22.638;2023-06-14T15:16:50;19.40;52.10
37158;DHT22;23050;51.776;22.638;2023-06-14T15:19:17;19.40;52.20
37158;DHT22;23050;51.776;22.638;2023-06-14T15:21:42;19.50;55.00
37158;DHT22;23050;51.776;22.638;2023-06-14T15:24:08;19.50;50.40
37158;DHT22;23050;51.776;22.638;2023-06-14T15:26:34;19.60;51.20
37158;DHT22;23050;51.776;22.638;2023-06-14T15:28:59;19.50;53.70